createdAt,value
2023-02-12T00:01:29.226Z,66.33
2023-02-12T00:03:57.836Z,65.63
2023-02-12T00:06:26.361Z,67.53
2023-02-12T00:08:56.240Z,71.97
2023-02-12T00:11:26.339Z,71.27
2023-02-12T00:13:55.135Z,67.10
2023-02-12T00:16:27.186Z,64.73
2023-02-12T00:18:59.539Z,68.00
2023-02-12T00:21:27.826Z,66.03
2023-02-12T00:23:57.393Z,71.43
2023-02-12T00:26:25.643Z,69.90
2023-02-12T00:28:54.641Z,66.53
2023-02-12T00:31:26.100Z,62.70
2023-02-12T00:33:54.750Z,60.23
2023-02-12T00:36:25.278Z,66.70
2023-02-12T00:38:54.890Z,64.37
2023-02-12T00:41:24.406Z,62.83
2023-02-12T00:43:54.847Z,60.63
2023-02-12T00:46:25.192Z,62.27
2023-02-12T00:48:53.618Z,57.77
2023-02-12T00:51:21.924Z,60.97
2023-02-12T00:53:50.424Z,61.80
2023-02-12T00:56:18.587Z,61.53
2023-02-12T00:58:46.843Z,54.37
2023-02-12T01:01:15.387Z,60.27
2023-02-12T01:03:45.439Z,62.03
2023-02-12T01:06:13.920Z,59.50
2023-02-12T01:08:42.401Z,55.53
2023-02-12T01:11:14.883Z,53.70
2023-02-12T01:13:43.214Z,59.70
2023-02-12T01:16:17.846Z,60.97
2023-02-12T01:18:48.669Z,61.13
2023-02-12T01:21:19.906Z,60.40
2023-02-12T01:23:49.023Z,74.73
2023-02-12T01:26:18.371Z,75.27
2023-02-12T01:28:51.212Z,71.33
2023-02-12T01:31:21.692Z,73.60
2023-02-12T01:33:52.890Z,75.83
2023-02-12T01:36:21.989Z,66.20
2023-02-12T01:38:50.814Z,75.33
2023-02-12T01:41:21.907Z,75.37
2023-02-12T01:44:09.771Z,81.93
2023-02-12T01:46:38.288Z,76.07
2023-02-12T01:49:13.238Z,76.13
2023-02-12T01:51:43.458Z,71.97
2023-02-12T01:54:14.877Z,71.80
2023-02-12T01:56:43.566Z,64.00
2023-02-12T01:59:12.902Z,61.60
2023-02-12T02:01:41.889Z,72.33
2023-02-12T02:04:15.619Z,69.13
2023-02-12T02:06:50.183Z,68.53
2023-02-12T02:09:21.481Z,72.23
2023-02-12T02:12:06.722Z,68.03
2023-02-12T02:14:37.584Z,83.53
2023-02-12T02:17:23.462Z,77.57
2023-02-12T02:20:27.413Z,76.87
2023-02-12T02:23:11.341Z,74.90
2023-02-12T02:26:02.096Z,76.90
2023-02-12T02:28:58.439Z,77.17
2023-02-12T02:31:34.434Z,76.30
2023-02-12T02:34:09.476Z,79.20
2023-02-12T02:36:58.315Z,82.60
2023-02-12T02:39:37.309Z,79.87
2023-02-12T02:42:11.647Z,70.80
2023-02-12T02:44:45.599Z,73.10
2023-02-12T02:47:18.771Z,71.90
2023-02-12T02:49:51.376Z,76.47
2023-02-12T02:52:23.890Z,68.90
2023-02-12T02:54:57.170Z,71.40
2023-02-12T02:57:30.164Z,66.67
2023-02-12T03:00:04.576Z,76.33
2023-02-12T03:02:38.893Z,72.53
2023-02-12T03:05:11.838Z,80.63
2023-02-12T03:07:45.372Z,77.90
2023-02-12T03:10:18.606Z,75.53
2023-02-12T03:12:53.113Z,80.10
2023-02-12T03:15:26.391Z,84.30
2023-02-12T03:17:57.663Z,82.03
2023-02-12T03:20:29.453Z,72.93
2023-02-12T03:23:04.143Z,78.83
2023-02-12T03:25:37.113Z,74.63
2023-02-12T03:28:11.060Z,78.70
2023-02-12T03:30:47.704Z,73.63
2023-02-12T03:33:24.191Z,79.80
2023-02-12T03:36:01.967Z,68.90
2023-02-12T03:38:38.031Z,71.87
2023-02-12T03:41:11.482Z,71.20
2023-02-12T03:43:52.662Z,73.60
2023-02-12T03:46:25.151Z,74.40
2023-02-12T03:49:02.830Z,75.00
2023-02-12T03:51:36.588Z,71.37
2023-02-12T03:54:06.393Z,69.97
2023-02-12T03:56:49.388Z,71.87
2023-02-12T03:59:17.771Z,67.53
2023-02-12T04:01:46.426Z,66.27
2023-02-12T04:04:16.937Z,69.53
2023-02-12T04:06:47.565Z,68.67
2023-02-12T04:09:17.776Z,65.53
2023-02-12T04:12:01.122Z,68.77
2023-02-12T04:14:37.264Z,72.17
2023-02-12T04:17:11.973Z,71.97
2023-02-12T04:19:56.268Z,72.33
2023-02-12T04:22:38.513Z,73.57
2023-02-12T04:25:17.057Z,68.57
2023-02-12T04:27:51.756Z,74.47
2023-02-12T04:30:26.427Z,67.50
2023-02-12T04:32:59.411Z,69.73
2023-02-12T04:35:36.570Z,69.27
2023-02-12T04:38:11.399Z,70.97
2023-02-12T04:40:41.787Z,69.47
2023-02-12T04:43:12.255Z,61.13
2023-02-12T04:45:40.546Z,58.47
2023-02-12T04:48:08.903Z,61.80
2023-02-12T04:50:42.567Z,68.67
2023-02-12T04:53:11.681Z,57.80
2023-02-12T04:55:40.244Z,60.87
2023-02-12T04:58:08.547Z,60.13
2023-02-12T05:00:37.429Z,61.40
2023-02-12T05:03:06.367Z,60.03
2023-02-12T05:05:36.266Z,67.23
2023-02-12T05:08:06.020Z,65.57
2023-02-12T05:10:34.395Z,62.00
2023-02-12T05:13:02.679Z,64.63
2023-02-12T05:15:30.904Z,60.17
2023-02-12T05:17:59.378Z,61.73
2023-02-12T05:20:27.822Z,60.13
2023-02-12T05:22:56.239Z,58.77
2023-02-12T05:25:26.075Z,63.33
2023-02-12T05:27:56.953Z,59.73
2023-02-12T05:30:25.580Z,65.73
2023-02-12T05:32:54.093Z,58.63
2023-02-12T05:35:22.330Z,54.27
2023-02-12T05:37:50.392Z,65.13
2023-02-12T05:40:19.164Z,62.40
2023-02-12T05:42:48.955Z,58.43
2023-02-12T05:45:17.617Z,62.17
2023-02-12T05:47:45.853Z,67.70
2023-02-12T05:50:18.091Z,64.17
2023-02-12T05:52:46.547Z,65.60
2023-02-12T05:55:15.190Z,59.27
2023-02-12T05:57:43.553Z,61.73
2023-02-12T06:00:16.014Z,65.90
2023-02-12T06:02:44.405Z,58.37
2023-02-12T06:05:12.854Z,56.00
2023-02-12T06:07:41.197Z,55.63
2023-02-12T06:10:10.842Z,53.00
2023-02-12T06:12:39.455Z,63.53
2023-02-12T06:15:08.648Z,57.23
2023-02-12T06:17:38.301Z,61.07
2023-02-12T06:20:08.730Z,63.20
2023-02-12T06:22:38.384Z,63.37
2023-02-12T06:25:07.470Z,66.03
2023-02-12T06:27:36.424Z,67.70
2023-02-12T06:30:04.936Z,69.20
2023-02-12T06:32:33.280Z,65.40
2023-02-12T06:35:03.268Z,71.33
2023-02-12T06:37:32.738Z,69.83
2023-02-12T06:40:01.047Z,76.20
2023-02-12T06:42:29.545Z,74.27
2023-02-12T06:44:57.630Z,72.40
2023-02-12T06:47:28.186Z,68.67
2023-02-12T06:49:57.412Z,73.93
2023-02-12T06:52:29.781Z,76.00
2023-02-12T06:55:01.870Z,69.43
2023-02-12T06:57:31.302Z,73.13
2023-02-12T06:59:59.490Z,70.93
2023-02-12T07:02:27.742Z,74.73
2023-02-12T07:04:56.136Z,75.67
2023-02-12T07:07:24.506Z,85.17
2023-02-12T07:09:55.760Z,77.33
2023-02-12T07:12:24.593Z,76.53
2023-02-12T07:14:53.029Z,73.50
2023-02-12T07:17:21.614Z,71.10
2023-02-12T07:19:50.122Z,69.20
2023-02-12T07:22:18.481Z,74.27
2023-02-12T07:24:47.869Z,69.43
2023-02-12T07:27:17.310Z,79.53
2023-02-12T07:29:45.814Z,77.47
2023-02-12T07:32:14.717Z,81.03
2023-02-12T07:34:42.864Z,84.73
2023-02-12T07:37:11.219Z,76.00
2023-02-12T07:39:39.633Z,72.10
2023-02-12T07:42:08.837Z,82.63
2023-02-12T07:44:38.746Z,79.27
2023-02-12T07:47:07.257Z,78.77
2023-02-12T07:49:35.378Z,76.57
2023-02-12T07:52:03.842Z,77.33
2023-02-12T07:54:31.998Z,71.83
2023-02-12T07:57:00.859Z,75.00
2023-02-12T07:59:30.009Z,84.53
2023-02-12T08:02:01.135Z,77.67
2023-02-12T08:04:29.737Z,78.33
2023-02-12T08:06:58.672Z,86.47
2023-02-12T08:09:31.151Z,80.87
2023-02-12T08:11:59.740Z,77.00
2023-02-12T08:14:28.712Z,86.80
2023-02-12T08:16:59.715Z,76.37
2023-02-12T08:19:28.965Z,87.13
2023-02-12T08:21:58.089Z,87.97
2023-02-12T08:24:27.055Z,89.57
2023-02-12T08:26:55.929Z,96.10
2023-02-12T08:29:29.300Z,94.40
2023-02-12T08:32:01.442Z,98.03
2023-02-12T08:34:31.588Z,93.17
2023-02-12T08:36:59.852Z,103.77
2023-02-12T08:39:30.412Z,101.90
2023-02-12T08:42:00.321Z,95.60
2023-02-12T08:44:29.311Z,100.27
2023-02-12T08:46:57.568Z,101.27
2023-02-12T08:49:29.335Z,104.03
2023-02-12T08:51:59.664Z,100.83
2023-02-12T08:54:30.612Z,99.37
2023-02-12T08:57:00.428Z,94.97
2023-02-12T08:59:29.515Z,96.73
2023-02-12T09:01:57.968Z,106.40
2023-02-12T09:04:29.738Z,100.20
2023-02-12T09:06:58.807Z,102.60
2023-02-12T09:09:27.105Z,104.10
2023-02-12T09:11:55.286Z,104.20
2023-02-12T09:14:25.166Z,110.10
2023-02-12T09:16:54.403Z,114.60
2023-02-12T09:19:24.744Z,123.07
2023-02-12T09:21:56.988Z,114.40
2023-02-12T09:24:25.697Z,116.80
2023-02-12T09:26:54.424Z,117.07
2023-02-12T09:29:22.739Z,113.00
2023-02-12T09:31:51.221Z,115.90
2023-02-12T09:34:19.664Z,120.03
2023-02-12T09:36:47.913Z,121.87
2023-02-12T09:39:18.331Z,117.17
2023-02-12T09:42:19.038Z,107.23
2023-02-12T09:44:51.009Z,110.47
2023-02-12T09:47:28.393Z,104.60
2023-02-12T09:50:19.029Z,106.43
2023-02-12T09:52:49.963Z,109.57
2023-02-12T09:55:21.030Z,423.87
2023-02-12T09:57:49.739Z,199.87
2023-02-12T10:00:24.514Z,114.97
2023-02-12T10:02:55.602Z,123.93
2023-02-12T10:05:29.441Z,107.63
2023-02-12T10:08:29.381Z,96.03
2023-02-12T10:11:09.831Z,95.10
2023-02-12T10:13:43.956Z,82.27
2023-02-12T10:16:20.932Z,133.53
2023-02-12T10:19:07.551Z,108.07
2023-02-12T10:21:46.028Z,80.37
2023-02-12T10:24:35.568Z,124.00
2023-02-12T10:27:14.773Z,86.83
2023-02-12T10:29:44.857Z,82.87
2023-02-12T10:32:21.681Z,78.13
2023-02-12T10:34:51.077Z,88.53
2023-02-12T10:37:29.369Z,75.23
2023-02-12T10:40:01.884Z,72.70
2023-02-12T10:42:39.849Z,87.20
2023-02-12T10:45:16.531Z,69.20
2023-02-12T10:47:45.950Z,68.83
2023-02-12T10:50:21.876Z,65.27
2023-02-12T10:52:55.606Z,73.07
2023-02-12T10:55:29.182Z,71.13
2023-02-12T10:58:00.014Z,74.20
2023-02-12T11:00:32.286Z,67.50
2023-02-12T11:03:07.241Z,72.73
2023-02-12T11:05:37.722Z,73.03
2023-02-12T11:08:08.203Z,66.90
2023-02-12T11:10:40.319Z,67.23
2023-02-12T11:13:24.568Z,62.67
2023-02-12T11:15:54.817Z,67.60
2023-02-12T11:18:26.235Z,63.80
2023-02-12T11:20:58.700Z,68.37
2023-02-12T11:23:29.901Z,63.17
2023-02-12T11:26:01.469Z,70.47
2023-02-12T11:28:37.802Z,64.87
2023-02-12T11:31:26.660Z,63.57
2023-02-12T11:34:17.098Z,58.97
2023-02-12T11:36:47.315Z,89.47
2023-02-12T11:39:22.431Z,64.50
2023-02-12T11:41:58.831Z,61.73
2023-02-12T11:44:34.407Z,60.20
2023-02-12T11:47:09.075Z,58.20
2023-02-12T11:49:44.342Z,58.57
2023-02-12T11:52:22.153Z,59.43
2023-02-12T11:54:53.489Z,57.23
2023-02-12T11:57:39.103Z,56.13
2023-02-12T12:00:16.896Z,53.60
2023-02-12T12:02:50.261Z,52.03
2023-02-12T12:05:22.692Z,49.70
2023-02-12T12:07:57.697Z,51.80
2023-02-12T12:10:33.056Z,52.33
2023-02-12T12:13:05.668Z,39.57
2023-02-12T12:15:57.387Z,41.00
2023-02-12T12:18:48.316Z,38.27
2023-02-12T12:21:25.988Z,21.97
2023-02-12T12:23:58.888Z,30.07
2023-02-12T12:26:29.504Z,25.70
2023-02-12T12:29:06.804Z,25.80
2023-02-12T12:31:41.221Z,19.17
2023-02-12T12:34:13.388Z,24.70
2023-02-12T12:37:02.537Z,31.47
2023-02-12T12:39:38.161Z,29.17
2023-02-12T12:42:28.540Z,30.07
2023-02-12T12:45:18.549Z,28.30
2023-02-12T12:48:02.569Z,21.23
2023-02-12T12:50:48.218Z,24.93
2023-02-12T12:53:28.422Z,27.50
2023-02-12T12:56:16.890Z,23.57
2023-02-12T12:59:00.720Z,25.07
2023-02-12T13:02:03.626Z,32.47
2023-02-12T13:04:56.569Z,32.13
2023-02-12T13:07:44.523Z,27.77
2023-02-12T13:10:24.966Z,27.80
2023-02-12T13:13:10.598Z,29.20
2023-02-12T13:15:49.070Z,35.27
2023-02-12T13:18:33.147Z,24.73
2023-02-12T13:21:12.617Z,26.20
2023-02-12T13:23:47.767Z,28.40
2023-02-12T13:26:20.136Z,35.43
2023-02-12T13:28:53.291Z,24.37
2023-02-12T13:31:32.693Z,36.70
2023-02-12T13:34:03.951Z,26.57
2023-02-12T13:36:34.843Z,27.80
2023-02-12T13:39:09.147Z,36.97
2023-02-12T13:41:38.238Z,33.27
2023-02-12T13:44:16.129Z,30.33
2023-02-12T13:46:57.106Z,22.40
2023-02-12T13:49:39.658Z,18.00
2023-02-12T13:52:14.720Z,18.50
2023-02-12T13:54:55.599Z,17.20
2023-02-12T13:57:24.018Z,32.40
2023-02-12T13:59:55.353Z,23.00
2023-02-12T14:02:44.851Z,23.30
2023-02-12T14:05:25.678Z,25.60
2023-02-12T14:07:57.976Z,22.23
2023-02-12T14:10:30.509Z,20.10
2023-02-12T14:13:11.586Z,21.27
2023-02-12T14:15:44.853Z,30.73
2023-02-12T14:18:29.534Z,21.47
2023-02-12T14:21:36.448Z,18.77
2023-02-12T14:24:47.379Z,31.80
2023-02-12T14:27:38.110Z,30.63
2023-02-12T14:30:31.684Z,16.63
2023-02-12T14:33:25.915Z,17.57
2023-02-12T14:36:17.580Z,23.07
2023-02-12T14:39:04.363Z,22.87
2023-02-12T14:41:51.892Z,19.37
2023-02-12T14:44:50.375Z,19.73
2023-02-12T14:47:52.178Z,16.50
2023-02-12T14:50:26.183Z,29.77
2023-02-12T14:53:00.675Z,13.13
2023-02-12T14:55:31.969Z,10.57
2023-02-12T14:58:03.820Z,13.43
2023-02-12T15:00:41.726Z,12.20
2023-02-12T15:03:22.480Z,16.93
2023-02-12T15:05:57.314Z,17.27
2023-02-12T15:08:32.603Z,12.60
2023-02-12T15:11:10.585Z,11.03
2023-02-12T15:13:49.560Z,14.60
2023-02-12T15:16:28.819Z,11.60
2023-02-12T15:19:02.153Z,12.37
2023-02-12T15:21:33.071Z,13.00
2023-02-12T15:24:07.427Z,15.33
2023-02-12T15:26:42.457Z,13.07
2023-02-12T15:29:22.873Z,16.13
2023-02-12T15:31:59.258Z,15.63
2023-02-12T15:34:32.292Z,14.43
2023-02-12T15:37:02.575Z,14.87
2023-02-12T15:39:41.298Z,15.73
2023-02-12T15:42:25.755Z,15.10
2023-02-12T15:45:03.055Z,16.57
2023-02-12T15:47:34.832Z,19.93
2023-02-12T15:50:03.815Z,17.20
2023-02-12T15:52:37.520Z,16.93
2023-02-12T15:55:07.859Z,16.37
2023-02-12T15:57:36.093Z,17.80
2023-02-12T16:00:10.440Z,15.33
2023-02-12T16:02:40.271Z,15.53
2023-02-12T16:05:15.829Z,15.93
2023-02-12T16:07:45.010Z,13.90
2023-02-12T16:10:16.836Z,14.70
2023-02-12T16:12:46.256Z,15.40
2023-02-12T16:15:30.963Z,12.30
2023-02-12T16:18:04.336Z,14.23
2023-02-12T16:20:35.183Z,14.73
2023-02-12T16:23:07.839Z,12.67
2023-02-12T16:25:40.556Z,16.47
2023-02-12T16:28:18.123Z,28.37
2023-02-12T16:30:48.641Z,13.83
2023-02-12T16:33:37.877Z,24.70
2023-02-12T16:36:10.589Z,20.50
2023-02-12T16:38:45.158Z,23.53
2023-02-12T16:41:27.840Z,23.90
2023-02-12T16:44:29.533Z,18.53
2023-02-12T16:47:01.169Z,16.23
2023-02-12T16:49:31.004Z,22.80
2023-02-12T16:52:23.126Z,18.03
2023-02-12T16:54:51.403Z,16.13
2023-02-12T16:57:19.881Z,18.90
2023-02-12T16:59:48.028Z,16.60
2023-02-12T17:02:17.331Z,14.00
2023-02-12T17:04:47.726Z,14.83
2023-02-12T17:07:22.569Z,16.20
2023-02-12T17:09:50.972Z,13.90
2023-02-12T17:12:19.539Z,18.37
2023-02-12T17:14:47.890Z,15.43
2023-02-12T17:17:16.257Z,14.90
2023-02-12T17:19:44.623Z,16.73
2023-02-12T17:22:21.789Z,16.73
2023-02-12T17:24:51.818Z,17.07
2023-02-12T17:27:20.313Z,16.53
2023-02-12T17:29:49.006Z,13.83
2023-02-12T17:32:17.409Z,15.03
2023-02-12T17:34:48.853Z,16.23
2023-02-12T17:37:22.380Z,20.60
2023-02-12T17:39:50.827Z,27.20
2023-02-12T17:42:19.110Z,31.70
2023-02-12T17:44:47.340Z,22.37
2023-02-12T17:47:16.072Z,16.27
2023-02-12T17:49:44.385Z,21.53
2023-02-12T17:52:12.585Z,19.30
2023-02-12T17:54:45.828Z,17.63
2023-02-12T17:57:22.559Z,16.90
2023-02-12T17:59:50.796Z,21.20
2023-02-12T18:02:19.449Z,19.60
2023-02-12T18:04:48.064Z,17.27
2023-02-12T18:07:16.760Z,21.40
2023-02-12T18:09:46.505Z,20.07
2023-02-12T18:12:15.096Z,19.17
2023-02-12T18:14:44.329Z,17.93
2023-02-12T18:17:16.120Z,18.33
2023-02-12T18:19:44.346Z,18.93
2023-02-12T18:22:12.979Z,17.60
2023-02-12T18:24:42.519Z,18.37
2023-02-12T18:27:14.030Z,18.23
2023-02-12T18:29:43.089Z,15.07
2023-02-12T18:32:14.800Z,17.70
2023-02-12T18:34:44.187Z,17.60
2023-02-12T18:37:14.668Z,15.80
2023-02-12T18:39:43.094Z,12.70
2023-02-12T18:42:13.815Z,19.30
2023-02-12T18:44:42.996Z,16.30
2023-02-12T18:47:13.727Z,21.03
2023-02-12T18:49:42.848Z,19.83
2023-02-12T18:52:11.484Z,29.63
2023-02-12T18:54:39.678Z,28.53
2023-02-12T18:57:10.910Z,27.20
2023-02-12T18:59:41.402Z,25.17
2023-02-12T19:02:09.884Z,28.93
2023-02-12T19:04:39.005Z,22.87
2023-02-12T19:07:07.894Z,20.50
2023-02-12T19:09:36.511Z,19.83
2023-02-12T19:12:06.095Z,18.23
2023-02-12T19:14:36.217Z,20.63
2023-02-12T19:17:06.032Z,21.73
2023-02-12T19:19:35.480Z,23.43
2023-02-12T19:22:04.090Z,23.97
2023-02-12T19:24:45.520Z,22.10
2023-02-12T19:27:16.055Z,18.83
2023-02-12T19:29:45.950Z,29.33
2023-02-12T19:32:15.714Z,23.07
2023-02-12T19:34:45.572Z,19.00
2023-02-12T19:37:14.820Z,17.37
2023-02-12T19:39:45.255Z,16.87
2023-02-12T19:42:15.063Z,18.33
2023-02-12T19:44:43.270Z,17.30
2023-02-12T19:47:13.018Z,17.03
2023-02-12T19:49:43.018Z,19.80
2023-02-12T19:52:11.654Z,15.97
2023-02-12T19:54:40.068Z,15.30
2023-02-12T19:57:09.859Z,17.77
2023-02-12T19:59:39.349Z,20.20
2023-02-12T20:02:08.277Z,22.83
2023-02-12T20:04:37.132Z,18.13
2023-02-12T20:07:08.339Z,25.37
2023-02-12T20:09:37.539Z,17.27
2023-02-12T20:12:07.443Z,17.93
2023-02-12T20:14:35.861Z,20.57
2023-02-12T20:17:04.106Z,16.67
2023-02-12T20:19:34.060Z,23.13
2023-02-12T20:22:04.723Z,17.93
2023-02-12T20:24:35.667Z,16.67
2023-02-12T20:27:05.510Z,17.53
2023-02-12T20:29:34.084Z,20.37
2023-02-12T20:32:03.041Z,17.33
2023-02-12T20:34:42.442Z,13.73
2023-02-12T20:37:18.473Z,21.40
2023-02-12T20:39:50.789Z,15.80
2023-02-12T20:42:19.107Z,16.93
2023-02-12T20:44:47.604Z,18.07
2023-02-12T20:47:17.798Z,14.83
2023-02-12T20:49:48.431Z,20.53
2023-02-12T20:52:17.234Z,19.33
2023-02-12T20:54:47.742Z,19.50
2023-02-12T20:57:18.580Z,21.80
2023-02-12T20:59:46.689Z,17.80
2023-02-12T21:02:15.349Z,22.17
2023-02-12T21:04:43.851Z,21.33
2023-02-12T21:07:12.488Z,17.57
2023-02-12T21:09:42.184Z,16.03
2023-02-12T21:12:10.439Z,16.30
2023-02-12T21:14:40.729Z,14.30
2023-02-12T21:17:09.021Z,12.63
2023-02-12T21:19:37.604Z,15.73
2023-02-12T21:22:06.369Z,10.63
2023-02-12T21:24:37.504Z,13.17
2023-02-12T21:27:05.983Z,12.07
2023-02-12T21:29:34.635Z,11.87
2023-02-12T21:32:04.898Z,10.87
2023-02-12T21:34:33.100Z,13.57
2023-02-12T21:37:01.471Z,12.70
2023-02-12T21:39:30.015Z,9.37
2023-02-12T21:42:00.351Z,9.43
2023-02-12T21:44:28.813Z,11.23
2023-02-12T21:46:57.687Z,9.53
2023-02-12T21:49:28.621Z,8.00
2023-02-12T21:51:58.770Z,10.77
2023-02-12T21:54:28.032Z,10.47
2023-02-12T21:56:57.763Z,10.03
2023-02-12T21:59:26.794Z,10.07
2023-02-12T22:01:58.485Z,11.47
2023-02-12T22:04:28.940Z,11.33
2023-02-12T22:06:58.432Z,11.70
2023-02-12T22:09:26.892Z,10.40
2023-02-12T22:11:55.547Z,11.37
2023-02-12T22:14:24.224Z,9.37
2023-02-12T22:16:53.355Z,12.07
2023-02-12T22:19:21.844Z,11.47
2023-02-12T22:21:53.412Z,9.27
2023-02-12T22:24:23.417Z,11.27
2023-02-12T22:26:52.051Z,10.37
2023-02-12T22:29:23.627Z,10.73
2023-02-12T22:31:55.689Z,10.07
2023-02-12T22:34:23.999Z,10.87
2023-02-12T22:36:58.985Z,9.30
2023-02-12T22:39:29.911Z,9.37
2023-02-12T22:41:58.366Z,7.17
2023-02-12T22:44:26.786Z,8.63
2023-02-12T22:46:55.682Z,6.80
2023-02-12T22:49:24.002Z,9.37
2023-02-12T22:51:55.760Z,7.43
2023-02-12T22:54:24.077Z,7.13
2023-02-12T22:56:54.496Z,7.47
2023-02-12T22:59:22.722Z,6.70
2023-02-12T23:01:51.130Z,6.03
2023-02-12T23:04:20.346Z,6.13
2023-02-12T23:06:50.019Z,7.43
2023-02-12T23:09:22.016Z,6.27
2023-02-12T23:11:50.350Z,8.03
2023-02-12T23:14:18.833Z,7.30
2023-02-12T23:16:47.718Z,6.63
2023-02-12T23:19:17.084Z,8.47
2023-02-12T23:21:45.703Z,7.20
2023-02-12T23:24:16.389Z,7.83
2023-02-12T23:26:47.681Z,7.50
2023-02-12T23:29:15.785Z,7.87
2023-02-12T23:31:44.110Z,9.23
2023-02-12T23:34:15.250Z,9.90
2023-02-12T23:36:44.076Z,9.87
2023-02-12T23:39:13.924Z,8.77
2023-02-12T23:41:42.401Z,7.90
2023-02-12T23:44:12.770Z,8.07
2023-02-12T23:46:41.095Z,9.23
2023-02-12T23:49:09.800Z,8.00
2023-02-12T23:51:38.116Z,10.10
2023-02-12T23:54:06.590Z,7.20
2023-02-12T23:56:34.990Z,8.47
2023-02-12T23:59:03.302Z,8.57
